Aquinnah, Massachusetts
Current Conditions -  °F | °C
As of 4:53 AM on Tuesday 21 Oct 2014 (Local Time) from KMVY Reporting Station
Overcast Overcast  
Wind Chill: 57°   Ceiling: 7000
Heat Index: 57°   Visibility: 10mi
Dew Point: 51°   Wind: 3mph
Humidity: 81%   Direction: 160°SSE
Pressure: 29.97"   Gusts: NA
Location:  41.3536°N, 70.7417°W
Report Text: KMVY 210853Z AUTO 16003KT 10SM OVC070 14/11 A2997 RMK AO2 SLP150 T01390106 56014
Loading
Personal Weather Stations






























Interactive Weather Map New forecast layout! Learn more

10-Day Weather Forecast

Advertisements
Track Severe Weather on mobile